createdAt,value
2018-09-09T00:00:09.657Z,98565.20
2018-09-09T00:02:41.601Z,98566.23
2018-09-09T00:05:14.559Z,98568.55
2018-09-09T00:07:46.418Z,98571.20
2018-09-09T00:10:18.167Z,98578.49
2018-09-09T00:12:50.088Z,98578.69
2018-09-09T00:15:21.867Z,98577.18
2018-09-09T00:17:54.021Z,98579.18
2018-09-09T00:20:25.734Z,98581.84
2018-09-09T00:22:57.544Z,98588.14
2018-09-09T00:25:29.304Z,98590.80
2018-09-09T00:28:01.354Z,98593.46
2018-09-09T00:30:33.060Z,98607.41
2018-09-09T00:33:05.283Z,98610.06
2018-09-09T00:35:36.854Z,98612.72
2018-09-09T00:38:09.115Z,98609.56
2018-09-09T00:40:40.910Z,98614.20
2018-09-09T00:43:12.763Z,98618.38
2018-09-09T00:45:44.700Z,98621.53
2018-09-09T00:48:16.688Z,98620.70
2018-09-09T00:50:53.125Z,98622.03
2018-09-09T00:53:29.888Z,98624.19
2018-09-09T00:56:01.705Z,98629.66
2018-09-09T00:58:33.510Z,98633.98
2018-09-09T01:01:09.565Z,98632.16
2018-09-09T01:03:41.648Z,98640.30
2018-09-09T01:06:13.631Z,98638.97
2018-09-09T01:08:45.285Z,98643.11
2018-09-09T01:11:17.128Z,98642.61
2018-09-09T01:13:49.324Z,98642.77
2018-09-09T01:16:21.372Z,98646.59
2018-09-09T01:18:53.199Z,98648.92
2018-09-09T01:21:25.044Z,98653.55
2018-09-09T01:23:56.664Z,98664.52
2018-09-09T01:26:28.466Z,98665.85
2018-09-09T01:29:00.637Z,98670.83
2018-09-09T01:31:32.642Z,98678.80
2018-09-09T01:34:04.459Z,98680.81
2018-09-09T01:36:36.287Z,98690.11
2018-09-09T01:39:11.038Z,98691.44
2018-09-09T01:41:42.738Z,98687.45
2018-09-09T01:44:14.982Z,98683.47
2018-09-09T01:46:46.893Z,98685.45
2018-09-09T01:49:18.700Z,98693.41
2018-09-09T01:51:50.543Z,98703.05
2018-09-09T01:54:22.450Z,98698.08
2018-09-09T01:56:54.347Z,98703.05
2018-09-09T01:59:26.723Z,98704.05
2018-09-09T02:01:58.633Z,98708.03
2018-09-09T02:04:30.245Z,98715.16
2018-09-09T02:07:01.981Z,98717.33
2018-09-09T02:09:33.554Z,98721.13
2018-09-09T02:12:05.324Z,98722.80
2018-09-09T02:14:37.785Z,98723.30
2018-09-09T02:17:09.550Z,98724.12
2018-09-09T02:19:41.615Z,98732.62
2018-09-09T02:22:13.162Z,98733.27
2018-09-09T02:24:44.913Z,98734.38
2018-09-09T02:27:16.733Z,98734.38
2018-09-09T02:29:48.661Z,98743.19
2018-09-09T02:32:20.927Z,98740.19
2018-09-09T02:34:52.817Z,98745.34
2018-09-09T02:37:25.028Z,98745.50
2018-09-09T02:39:57.745Z,98754.00
2018-09-09T02:42:29.598Z,98756.47
2018-09-09T02:45:01.708Z,98758.09
2018-09-09T02:47:33.687Z,98754.11
2018-09-09T02:50:05.816Z,98754.11
2018-09-09T02:52:37.697Z,98765.23
2018-09-09T02:55:09.623Z,98772.14
2018-09-09T02:57:41.193Z,98780.78
2018-09-09T03:00:13.274Z,98780.94
2018-09-09T03:02:45.282Z,98785.95
2018-09-09T03:05:17.204Z,98793.72
2018-09-09T03:07:49.055Z,98791.26
2018-09-09T03:10:21.032Z,98791.56
2018-09-09T03:12:52.789Z,98794.56
2018-09-09T03:15:24.673Z,98804.84
2018-09-09T03:17:56.524Z,98809.16
2018-09-09T03:20:28.938Z,98806.96
2018-09-09T03:23:00.801Z,98804.50
2018-09-09T03:25:32.609Z,98818.13
2018-09-09T03:28:04.259Z,98814.78
2018-09-09T03:30:36.095Z,98821.77
2018-09-09T03:33:09.399Z,98829.09
2018-09-09T03:35:41.152Z,98829.72
2018-09-09T03:38:12.899Z,98827.22
2018-09-09T03:40:46.033Z,98832.04
2018-09-09T03:43:17.916Z,98837.55
2018-09-09T03:45:50.141Z,98839.86
2018-09-09T03:48:21.950Z,98839.38
2018-09-09T03:50:53.764Z,98835.73
2018-09-09T03:53:25.809Z,98842.03
2018-09-09T03:55:57.840Z,98839.11
2018-09-09T03:58:29.698Z,98840.44
2018-09-09T04:01:01.867Z,98839.11
2018-09-09T04:03:33.823Z,98836.95
2018-09-09T04:06:06.040Z,98844.78
2018-09-09T04:08:38.033Z,98846.45
2018-09-09T04:11:10.467Z,98845.46
2018-09-09T04:13:43.699Z,98846.64
2018-09-09T04:16:15.478Z,98843.98
2018-09-09T04:18:47.356Z,98847.77
2018-09-09T04:21:19.464Z,98843.98
2018-09-09T04:23:51.502Z,98852.80
2018-09-09T04:26:23.150Z,98857.13
2018-09-09T04:28:54.983Z,98853.13
2018-09-09T04:31:27.049Z,98851.80
2018-09-09T04:33:58.783Z,98854.96
2018-09-09T04:37:07.519Z,98861.30
2018-09-09T04:39:39.278Z,98857.81
2018-09-09T04:42:11.881Z,98855.16
2018-09-09T04:44:43.510Z,98850.19
2018-09-09T04:47:15.473Z,98848.86
2018-09-09T04:49:47.667Z,98852.34
2018-09-09T04:52:19.698Z,98851.33
2018-09-09T04:54:51.443Z,98856.33
2018-09-09T04:57:23.414Z,98848.17
2018-09-09T04:59:55.230Z,98852.84
2018-09-09T05:02:27.388Z,98857.52
2018-09-09T05:04:59.097Z,98855.20
2018-09-09T05:07:31.232Z,98855.85
2018-09-09T05:10:03.132Z,98854.52
2018-09-09T05:12:35.120Z,98857.22
2018-09-09T05:15:07.067Z,98857.71
2018-09-09T05:17:39.092Z,98858.55
2018-09-09T05:20:10.842Z,98855.73
2018-09-09T05:22:43.062Z,98858.70
2018-09-09T05:25:14.772Z,98862.53
2018-09-09T05:27:46.928Z,98858.20
2018-09-09T05:33:20.502Z,98860.87
2018-09-09T05:35:52.496Z,98852.25
2018-09-09T05:38:24.462Z,98853.58
2018-09-09T05:40:56.314Z,98850.28
2018-09-09T05:43:29.662Z,98855.89
2018-09-09T05:46:01.362Z,98859.39
2018-09-09T05:48:34.552Z,98856.58
2018-09-09T05:51:06.424Z,98847.47
2018-09-09T05:53:38.134Z,98853.58
2018-09-09T05:56:09.830Z,98845.45
2018-09-09T05:58:41.719Z,98848.95
2018-09-09T06:01:13.338Z,98846.30
2018-09-09T06:03:45.257Z,98846.30
2018-09-09T06:06:16.836Z,98841.31
2018-09-09T06:08:48.970Z,98848.98
2018-09-09T06:11:20.595Z,98848.00
2018-09-09T06:13:52.737Z,98842.83
2018-09-09T06:16:24.463Z,98837.67
2018-09-09T06:18:56.131Z,98835.70
2018-09-09T06:21:27.252Z,98827.72
2018-09-09T06:23:59.912Z,98826.05
2018-09-09T06:26:32.744Z,98818.76
2018-09-09T06:29:04.729Z,98832.36
2018-09-09T06:31:36.439Z,98823.05
2018-09-09T06:34:08.431Z,98824.34
2018-09-09T06:36:40.664Z,98823.70
2018-09-09T06:39:13.158Z,98826.66
2018-09-09T06:41:44.842Z,98822.33
2018-09-09T06:44:17.567Z,98819.70
2018-09-09T06:46:49.238Z,98822.22
2018-09-09T06:49:21.119Z,98817.73
2018-09-09T06:51:52.842Z,98814.43
2018-09-09T06:54:24.575Z,98814.13
2018-09-09T06:56:56.585Z,98811.95
2018-09-09T06:59:28.258Z,98812.45
2018-09-09T07:02:00.158Z,98812.45
2018-09-09T07:04:32.050Z,98806.30
2018-09-09T07:07:04.326Z,98808.62
2018-09-09T07:09:35.893Z,98806.18
2018-09-09T07:12:07.741Z,98807.97
2018-09-09T07:14:39.267Z,98797.70
2018-09-09T07:17:10.978Z,98801.54
2018-09-09T07:19:43.771Z,98798.55
2018-09-09T07:22:15.612Z,98803.14
2018-09-09T07:24:47.331Z,98803.98
2018-09-09T07:27:19.065Z,98797.18
2018-09-09T07:29:50.834Z,98800.21
2018-09-09T07:32:22.543Z,98793.91
2018-09-09T07:34:54.344Z,98791.58
2018-09-09T07:37:26.015Z,98789.23
2018-09-09T07:39:57.539Z,98789.27
2018-09-09T07:42:29.335Z,98786.94
2018-09-09T07:45:01.870Z,98789.94
2018-09-09T07:47:33.388Z,98790.25
2018-09-09T07:50:05.270Z,98787.25
2018-09-09T07:52:36.795Z,98791.27
2018-09-09T07:55:08.593Z,98793.74
2018-09-09T07:57:40.043Z,98786.28
2018-09-09T08:00:11.886Z,98788.61
2018-09-09T08:02:43.362Z,98781.80
2018-09-09T08:05:15.137Z,98778.64
2018-09-09T08:07:46.615Z,98779.98
2018-09-09T08:10:18.623Z,98777.66
2018-09-09T08:12:51.153Z,98776.14
2018-09-09T08:15:23.073Z,98776.48
2018-09-09T08:17:54.492Z,98779.63
2018-09-09T08:20:26.336Z,98773.48
2018-09-09T08:22:57.943Z,98772.34
2018-09-09T08:25:29.711Z,98768.50
2018-09-09T08:28:01.137Z,98766.00
2018-09-09T08:30:33.021Z,98762.34
2018-09-09T08:33:04.800Z,98762.70
2018-09-09T08:35:36.776Z,98758.70
2018-09-09T08:38:08.527Z,98753.38
2018-09-09T08:40:40.343Z,98753.38
2018-09-09T08:43:12.006Z,98748.55
2018-09-09T08:45:45.248Z,98747.06
2018-09-09T08:48:16.727Z,98745.23
2018-09-09T08:50:48.461Z,98744.56
2018-09-09T08:53:20.116Z,98734.76
2018-09-09T08:55:52.097Z,98738.59
2018-09-09T08:58:23.999Z,98742.25
2018-09-09T09:00:56.060Z,98734.42
2018-09-09T09:03:27.811Z,98733.27
2018-09-09T09:06:00.023Z,98732.28
2018-09-09T09:08:31.688Z,98728.78
2018-09-09T09:11:03.403Z,98719.97
2018-09-09T09:13:35.222Z,98717.66
2018-09-09T09:16:06.902Z,98719.13
2018-09-09T09:18:39.934Z,98721.79
2018-09-09T09:21:11.563Z,98726.28
2018-09-09T09:23:43.505Z,98721.80
2018-09-09T09:26:15.089Z,98714.48
2018-09-09T09:28:46.817Z,98712.16
2018-09-09T09:31:19.502Z,98713.82
2018-09-09T09:33:51.277Z,98706.16
2018-09-09T09:36:22.955Z,98714.66
2018-09-09T09:38:54.734Z,98716.32
2018-09-09T09:41:26.258Z,98710.50
2018-09-09T09:43:59.129Z,98715.14
2018-09-09T09:46:32.205Z,98707.50
2018-09-09T09:49:03.712Z,98704.50
2018-09-09T09:51:35.564Z,98701.53
2018-09-09T09:54:07.263Z,98708.83
2018-09-09T09:56:39.345Z,98707.69
2018-09-09T09:59:11.016Z,98707.50
2018-09-09T10:01:42.743Z,98705.33
2018-09-09T10:04:14.442Z,98704.50
2018-09-09T10:06:47.232Z,98699.38
2018-09-09T10:09:18.932Z,98704.00
2018-09-09T10:11:50.799Z,98698.19
2018-09-09T10:14:22.665Z,98699.52
2018-09-09T10:16:54.502Z,98694.55
2018-09-09T10:19:26.480Z,98699.52
2018-09-09T10:21:58.543Z,98695.03
2018-09-09T10:24:31.626Z,98691.88
2018-09-09T10:27:03.298Z,98692.87
2018-09-09T10:29:35.067Z,98689.37
2018-09-09T10:32:06.740Z,98692.87
2018-09-09T10:34:38.345Z,98696.52
2018-09-09T10:37:10.168Z,98692.87
2018-09-09T10:39:41.884Z,98691.88
2018-09-09T10:42:13.819Z,98693.20
2018-09-09T10:44:45.510Z,98695.87
2018-09-09T10:47:17.606Z,98696.86
2018-09-09T10:49:49.478Z,98697.20
2018-09-09T10:52:21.480Z,98695.72
2018-09-09T10:54:53.350Z,98692.53
2018-09-09T10:57:24.959Z,98694.89
2018-09-09T10:59:56.611Z,98696.52
2018-09-09T11:02:28.326Z,98695.53
2018-09-09T11:05:00.112Z,98696.71
2018-09-09T11:07:32.199Z,98704.50
2018-09-09T11:10:03.897Z,98708.19
2018-09-09T11:12:35.988Z,98711.67
2018-09-09T11:15:07.610Z,98711.84
2018-09-09T11:17:39.210Z,98714.16
2018-09-09T11:20:10.975Z,98710.66
2018-09-09T11:22:43.098Z,98714.50
2018-09-09T11:25:14.700Z,98710.01
2018-09-09T11:27:46.363Z,98708.19
2018-09-09T11:30:18.008Z,98709.17
2018-09-09T11:32:50.080Z,98710.50
2018-09-09T11:35:23.357Z,98711.34
2018-09-09T11:37:56.161Z,98713.82
2018-09-09T11:40:27.976Z,98713.33
2018-09-09T11:42:59.629Z,98714.31
2018-09-09T11:45:32.193Z,98708.16
2018-09-09T11:48:03.895Z,98715.15
2018-09-09T11:50:35.680Z,98711.66
2018-09-09T11:53:07.783Z,98710.14
2018-09-09T11:55:39.662Z,98711.81
2018-09-09T11:58:11.721Z,98703.50
2018-09-09T12:00:43.590Z,98709.98
2018-09-09T12:03:15.764Z,98710.48
2018-09-09T12:05:47.731Z,98715.31
2018-09-09T12:08:19.514Z,98705.17
2018-09-09T12:10:51.244Z,98709.49
2018-09-09T12:13:23.890Z,98708.82
2018-09-09T12:15:56.360Z,98710.48
2018-09-09T12:18:29.058Z,98710.83
2018-09-09T12:21:00.974Z,98710.48
2018-09-09T12:23:32.967Z,98712.16
2018-09-09T12:26:05.917Z,98708.33
2018-09-09T12:28:39.052Z,98711.83
2018-09-09T12:31:10.672Z,98708.16
2018-09-09T12:33:42.632Z,98712.48
2018-09-09T12:36:14.492Z,98713.81
2018-09-09T12:38:46.195Z,98715.79
2018-09-09T12:41:17.747Z,98718.80
2018-09-09T12:43:54.058Z,98725.78
2018-09-09T12:46:30.386Z,98728.78
2018-09-09T12:49:05.745Z,98730.09
2018-09-09T12:51:37.523Z,98736.08
2018-09-09T12:54:09.338Z,98738.74
2018-09-09T12:56:41.731Z,98745.39
2018-09-09T12:59:13.518Z,98750.37
2018-09-09T13:01:45.574Z,98751.52
2018-09-09T13:04:18.291Z,98751.52
2018-09-09T13:06:50.139Z,98756.00
2018-09-09T13:09:21.951Z,98761.01
2018-09-09T13:11:53.478Z,98760.61
2018-09-09T13:14:25.231Z,98764.81
2018-09-09T13:16:56.902Z,98765.65
2018-09-09T13:19:28.790Z,98766.64
2018-09-09T13:22:00.573Z,98773.96
2018-09-09T13:24:32.639Z,98775.30
2018-09-09T13:27:04.278Z,98770.97
2018-09-09T13:29:36.403Z,98783.27
2018-09-09T13:32:08.003Z,98780.92
2018-09-09T13:34:40.114Z,98783.09
2018-09-09T13:37:11.949Z,98782.59
2018-09-09T13:39:43.773Z,98781.87
2018-09-09T13:42:15.894Z,98789.52
2018-09-09T13:44:47.776Z,98793.84
2018-09-09T13:47:19.377Z,98801.66
2018-09-09T13:49:50.772Z,98799.99
2018-09-09T13:52:22.015Z,98794.49
2018-09-09T13:54:53.140Z,98804.14
2018-09-09T13:57:24.769Z,98807.45
2018-09-09T13:59:56.608Z,98808.28
2018-09-09T14:02:28.275Z,98817.24
2018-09-09T14:05:00.111Z,98816.41
2018-09-09T14:07:31.825Z,98818.42
2018-09-09T14:10:03.699Z,98820.09
2018-09-09T14:12:35.359Z,98823.73
2018-09-09T14:15:07.439Z,98833.19
2018-09-09T14:17:39.243Z,98835.20
2018-09-09T14:20:11.377Z,98841.35
2018-09-09T14:22:43.080Z,98841.31
2018-09-09T14:25:15.661Z,98839.34
2018-09-09T14:27:47.558Z,98846.33
2018-09-09T14:30:19.411Z,98855.78
2018-09-09T14:32:51.242Z,98857.08
2018-09-09T14:35:22.879Z,98863.56
2018-09-09T14:37:54.511Z,98860.42
2018-09-09T14:40:27.990Z,98863.56
2018-09-09T14:42:59.675Z,98869.23
2018-09-09T14:45:31.426Z,98869.56
2018-09-09T14:48:03.271Z,98870.55
2018-09-09T14:50:35.062Z,98869.88
2018-09-09T14:53:06.863Z,98874.84
2018-09-09T14:55:38.986Z,98881.84
2018-09-09T14:58:10.853Z,98881.49
2018-09-09T15:00:42.729Z,98889.99
2018-09-09T15:03:14.767Z,98890.79
2018-09-09T15:05:46.804Z,98888.81
2018-09-09T15:08:19.634Z,98887.33
2018-09-09T15:10:51.416Z,98892.31
2018-09-09T15:13:23.391Z,98894.13
2018-09-09T15:15:55.254Z,98897.78
2018-09-09T15:18:28.249Z,98899.94
2018-09-09T15:21:01.325Z,98906.24
2018-09-09T15:23:33.026Z,98901.77
2018-09-09T15:26:05.130Z,98906.73
2018-09-09T15:28:36.960Z,98906.39
2018-09-09T15:31:08.853Z,98905.94
2018-09-09T15:33:40.388Z,98904.13
2018-09-09T15:36:11.992Z,98912.94
2018-09-09T15:38:44.545Z,98916.44
2018-09-09T15:41:17.551Z,98921.45
2018-09-09T15:43:50.873Z,98926.77
2018-09-09T15:46:23.742Z,98921.11
2018-09-09T15:48:56.800Z,98932.77
2018-09-09T15:51:29.159Z,98929.77
2018-09-09T15:54:01.629Z,98930.91
2018-09-09T15:56:34.080Z,98935.24
2018-09-09T15:59:06.431Z,98932.47
2018-09-09T16:01:41.827Z,98934.14
2018-09-09T16:04:15.592Z,98940.78
2018-09-09T16:06:47.924Z,98942.80
2018-09-09T16:09:21.820Z,98942.80
2018-09-09T16:11:54.794Z,98949.79
2018-09-09T16:14:27.077Z,98957.09
2018-09-09T16:16:58.882Z,98953.59
2018-09-09T16:19:30.343Z,98959.41
2018-09-09T16:22:02.735Z,98955.11
2018-09-09T16:24:35.028Z,98956.74
2018-09-09T16:27:07.538Z,98960.73
2018-09-09T16:29:40.506Z,98959.41
2018-09-09T16:32:14.337Z,98963.73
2018-09-09T16:34:47.873Z,98963.89
2018-09-09T16:37:20.438Z,98964.06
2018-09-09T16:39:52.107Z,98966.64
2018-09-09T16:42:24.021Z,98963.34
2018-09-09T16:44:55.713Z,98965.33
2018-09-09T16:47:27.568Z,98959.89
2018-09-09T16:49:59.183Z,98959.05
2018-09-09T16:52:32.070Z,98956.24
2018-09-09T16:55:03.821Z,98956.73
2018-09-09T16:57:36.401Z,98960.08
2018-09-09T17:00:09.885Z,98964.06
2018-09-09T17:02:41.774Z,98971.06
2018-09-09T17:05:13.429Z,98974.02
2018-09-09T17:07:45.297Z,98969.73
2018-09-09T17:10:16.885Z,98974.21
2018-09-09T17:12:48.700Z,98970.04
2018-09-09T17:15:20.984Z,98964.41
2018-09-09T17:17:53.085Z,98971.37
2018-09-09T17:20:24.761Z,98969.20
2018-09-09T17:22:56.778Z,98970.72
2018-09-09T17:25:29.369Z,98975.20
2018-09-09T17:28:01.300Z,98971.20
2018-09-09T17:30:33.967Z,98972.05
2018-09-09T17:33:05.756Z,98967.56
2018-09-09T17:35:38.451Z,98970.72
2018-09-09T17:38:10.409Z,98975.54
2018-09-09T17:40:43.231Z,98973.03
2018-09-09T17:43:18.781Z,98976.38
2018-09-09T17:45:51.898Z,98977.18
2018-09-09T17:48:23.940Z,98982.34
2018-09-09T17:50:55.687Z,98977.03
2018-09-09T17:53:27.685Z,98980.18
2018-09-09T17:56:00.362Z,98975.84
2018-09-09T17:58:32.083Z,98976.69
2018-09-09T18:01:04.166Z,98978.36
2018-09-09T18:03:36.091Z,98972.05
2018-09-09T18:06:10.856Z,98971.37
2018-09-09T18:08:42.653Z,98968.05
2018-09-09T18:11:14.217Z,98969.20
2018-09-09T18:13:46.073Z,98967.56
2018-09-09T18:16:17.748Z,98958.75
2018-09-09T18:18:49.360Z,98960.42
2018-09-09T18:21:21.093Z,98956.92
2018-09-09T18:23:53.047Z,98958.75
2018-09-09T18:26:25.752Z,98962.05
2018-09-09T18:28:59.215Z,98952.10
2018-09-09T18:31:31.173Z,98956.09
2018-09-09T18:34:03.072Z,98959.09
2018-09-09T18:36:34.446Z,98956.59
2018-09-09T18:39:08.927Z,98953.77
2018-09-09T18:41:40.900Z,98954.42
2018-09-09T18:44:12.743Z,98948.11
2018-09-09T18:46:45.479Z,98949.86
2018-09-09T18:49:18.831Z,98951.08
2018-09-09T18:51:52.047Z,98947.55
2018-09-09T18:54:24.238Z,98948.42
2018-09-09T18:56:55.949Z,98947.43
2018-09-09T18:59:28.031Z,98947.43
2018-09-09T19:02:00.370Z,98941.13
2018-09-09T19:04:34.863Z,98943.29
2018-09-09T19:07:06.953Z,98940.29
2018-09-09T19:09:38.649Z,98937.29
2018-09-09T19:12:10.556Z,98942.45
2018-09-09T19:14:42.650Z,98943.09
2018-09-09T19:17:15.288Z,98942.23
2018-09-09T19:19:46.988Z,98946.10
2018-09-09T19:22:18.715Z,98942.95
2018-09-09T19:24:50.421Z,98938.62
2018-09-09T19:27:21.876Z,98926.16
2018-09-09T19:29:53.599Z,98930.15
2018-09-09T19:32:25.522Z,98925.45
2018-09-09T19:34:57.270Z,98928.48
2018-09-09T19:37:29.121Z,98919.86
2018-09-09T19:40:00.742Z,98922.52
2018-09-09T19:42:36.752Z,98920.13
2018-09-09T19:45:08.920Z,98917.47
2018-09-09T19:47:40.888Z,98916.63
2018-09-09T19:50:12.777Z,98914.47
2018-09-09T19:52:44.185Z,98914.47
2018-09-09T19:55:15.867Z,98908.66
2018-09-09T19:57:47.632Z,98903.22
2018-09-09T20:00:19.232Z,98899.20
2018-09-09T20:02:51.427Z,98898.86
2018-09-09T20:05:23.227Z,98891.88
2018-09-09T20:07:55.165Z,98885.06
2018-09-09T20:10:27.045Z,98887.23
2018-09-09T20:12:58.772Z,98877.59
2018-09-09T20:15:30.462Z,98883.59
2018-09-09T20:18:02.263Z,98883.59
2018-09-09T20:20:34.147Z,98884.58
2018-09-09T20:23:05.914Z,98886.89
2018-09-09T20:25:37.842Z,98877.92
2018-09-09T20:28:09.509Z,98876.75
2018-09-09T20:30:41.757Z,98874.92
2018-09-09T20:33:13.416Z,98870.94
2018-09-09T20:35:45.049Z,98870.30
2018-09-09T20:38:16.669Z,98870.78
2018-09-09T20:40:48.535Z,98864.45
2018-09-09T20:43:20.191Z,98858.45
2018-09-09T20:45:52.551Z,98860.30
2018-09-09T20:48:24.340Z,98858.98
2018-09-09T20:50:56.103Z,98859.97
2018-09-09T20:53:27.789Z,98852.98
2018-09-09T20:55:59.403Z,98851.16
2018-09-09T20:58:31.520Z,98851.64
2018-09-09T21:01:03.280Z,98855.98
2018-09-09T21:03:35.215Z,98856.28
2018-09-09T21:06:06.784Z,98857.95
2018-09-09T21:08:38.394Z,98854.30
2018-09-09T21:11:10.094Z,98857.30
2018-09-09T21:13:41.609Z,98855.30
2018-09-09T21:16:13.338Z,98851.64
2018-09-09T21:18:44.923Z,98850.81
2018-09-09T21:21:17.540Z,98839.00
2018-09-09T21:23:49.114Z,98840.33
2018-09-09T21:26:20.921Z,98841.35
2018-09-09T21:28:52.763Z,98840.67
2018-09-09T21:31:24.496Z,98833.19
2018-09-09T21:33:56.168Z,98831.02
2018-09-09T21:36:28.376Z,98834.67
2018-09-09T21:39:00.351Z,98834.37
2018-09-09T21:41:32.122Z,98836.34
2018-09-09T21:44:03.808Z,98832.05
2018-09-09T21:46:35.576Z,98829.70
2018-09-09T21:49:07.653Z,98818.72
2018-09-09T21:51:39.301Z,98824.88
2018-09-09T21:54:11.007Z,98819.41
2018-09-09T21:56:43.226Z,98825.86
2018-09-09T21:59:14.941Z,98821.38
2018-09-09T22:01:51.471Z,98822.06
2018-09-09T22:04:23.257Z,98820.05
2018-09-09T22:06:54.741Z,98821.72
2018-09-09T22:09:26.489Z,98814.73
2018-09-09T22:11:58.449Z,98818.38
2018-09-09T22:14:31.411Z,98817.73
2018-09-09T22:17:03.302Z,98819.71
2018-09-09T22:19:34.991Z,98824.88
2018-09-09T22:22:07.281Z,98816.06
2018-09-09T22:24:38.923Z,98825.03
2018-09-09T22:27:10.616Z,98818.72
2018-09-09T22:29:42.370Z,98827.69
2018-09-09T22:32:14.198Z,98832.32
2018-09-09T22:34:45.656Z,98829.66
2018-09-09T22:37:17.232Z,98817.39
2018-09-09T22:39:49.068Z,98830.19
2018-09-09T22:42:20.837Z,98818.23
2018-09-09T22:44:52.560Z,98814.73
2018-09-09T22:47:24.420Z,98815.05
2018-09-09T22:49:56.308Z,98812.39
2018-09-09T22:52:27.789Z,98820.05
2018-09-09T22:54:59.563Z,98826.70
2018-09-09T22:57:31.468Z,98817.05
2018-09-09T23:00:03.583Z,98815.04
2018-09-09T23:04:00.021Z,98814.05
2018-09-09T23:06:32.402Z,98820.89
2018-09-09T23:09:04.993Z,98825.52
2018-09-09T23:11:36.731Z,98823.51
2018-09-09T23:14:09.092Z,98828.02
2018-09-09T23:16:40.990Z,98834.83
2018-09-09T23:19:13.100Z,98834.14
2018-09-09T23:21:45.622Z,98837.63
2018-09-09T23:24:18.639Z,98834.63
2018-09-09T23:26:50.279Z,98836.61
2018-09-09T23:29:22.028Z,98838.28
2018-09-09T23:31:53.769Z,98840.94
2018-09-09T23:34:25.436Z,98847.92
2018-09-09T23:36:57.240Z,98855.06
2018-09-09T23:39:29.081Z,98855.21
2018-09-09T23:42:00.963Z,98854.22
2018-09-09T23:44:32.525Z,98858.55
2018-09-09T23:47:04.294Z,98862.04
2018-09-09T23:49:36.109Z,98863.19
2018-09-09T23:52:07.786Z,98870.47
2018-09-09T23:54:39.461Z,98869.14
2018-09-09T23:57:11.264Z,98874.30
2018-09-09T23:59:43.267Z,98874.84
